Pagrindinis puslapis
METAR-TAF:

METAR-TAF

Oro uostai :

Bakeu, Rumunija

platuma: 46-35N, ilguma: 026-58E, Aukštis: 184 m

Dabartinis oras

Ataskaita buvo paskelbta 28 minutes, ne 12:30 UTC
Vėjas 3 kt iš Rytų/Šiaurės Rytų, svyruoja nuo Šiaurės ir Pietryčių
Temperatūra 13°C
Drėgmė 54%
Slėgis 1021 hPa
Matomumas 10 km arba daugiau
Apsiniaukę ne aukštis 3900 ft

METAR: LRBC 171230Z 06003KT 350V130 9999 OVC039 13/04 Q1021

Laikas: 15:58 (12:58 UTC)

Prognozė

Ataskaita buvo paskelbta 1 valandą ir 58 minutes, ne 11:00 UTC
Prognozė galioja nuo 17 metu 12 UTC su 17 metu 21 UTC
Vėjas 6 kt iš Šiaurės
Matomumas 10 km arba daugiau
Su prošvaistėmis ne aukštis 4000 ft
Tapsmas
nuo 17 metu 17 UTC su 17 metu 19 UTC
Matomumas: 5000 m
rūkana

TAF: LRBC 171100Z 1712/1721 35006KT 9999 BKN040 BECMG 1717/1719 5000 BR

Orai ataskaitas ir orų prognozės (METAR, TAF).

turimą stotys yra geltonos ir raudonos taškus žemėlapyje.

Perkelti pele per norėdami pamatyti stoties vardą.

Tada spustelėkite, norėdami matyti oro stebėjimo ir prognozės.

Norėdami pakeisti žemėlapį: spustelėkite ant žalios mygtukų su juodo kryžiaus žemyn,; žalią mygtuką su brūkšneliu, jei norite nutolinti; arba žalių rodyklių gretimoms žemėlapius.


METAR-TAF: